sensor_id;sensor_type;location;lat;lon;timestamp;P1;durP1;ratioP1;P2;durP2;ratioP2
20026;SDS011;10174;42.688;23.344;2022-12-11T00:01:53;49.42;;;22.58;;
20026;SDS011;10174;42.688;23.344;2022-12-11T00:04:19;44.50;;;21.92;;
20026;SDS011;10174;42.688;23.344;2022-12-11T00:06:44;48.17;;;22.92;;
20026;SDS011;10174;42.688;23.344;2022-12-11T00:09:10;47.83;;;22.05;;
20026;SDS011;10174;42.688;23.344;2022-12-11T00:11:36;54.17;;;24.33;;
20026;SDS011;10174;42.688;23.344;2022-12-11T00:14:01;55.85;;;23.92;;
20026;SDS011;10174;42.688;23.344;2022-12-11T00:16:27;51.40;;;24.27;;
20026;SDS011;10174;42.688;23.344;2022-12-11T00:18:52;52.17;;;23.08;;
20026;SDS011;10174;42.688;23.344;2022-12-11T00:21:18;50.50;;;22.98;;
20026;SDS011;10174;42.688;23.344;2022-12-11T00:23:43;46.00;;;21.42;;
20026;SDS011;10174;42.688;23.344;2022-12-11T00:26:11;47.30;;;20.80;;
20026;SDS011;10174;42.688;23.344;2022-12-11T00:28:38;39.88;;;21.08;;
20026;SDS011;10174;42.688;23.344;2022-12-11T00:31:04;48.78;;;23.63;;
20026;SDS011;10174;42.688;23.344;2022-12-11T00:33:31;55.47;;;24.45;;
20026;SDS011;10174;42.688;23.344;2022-12-11T00:35:56;47.13;;;23.60;;
20026;SDS011;10174;42.688;23.344;2022-12-11T00:38:22;48.03;;;24.23;;
20026;SDS011;10174;42.688;23.344;2022-12-11T00:40:48;55.30;;;23.48;;
20026;SDS011;10174;42.688;23.344;2022-12-11T00:43:13;49.92;;;21.92;;
20026;SDS011;10174;42.688;23.344;2022-12-11T00:45:40;46.88;;;19.45;;
20026;SDS011;10174;42.688;23.344;2022-12-11T00:48:07;41.45;;;19.30;;
20026;SDS011;10174;42.688;23.344;2022-12-11T00:50:33;38.67;;;18.25;;
20026;SDS011;10174;42.688;23.344;2022-12-11T00:52:59;44.05;;;17.88;;
20026;SDS011;10174;42.688;23.344;2022-12-11T00:55:25;42.03;;;19.67;;
20026;SDS011;10174;42.688;23.344;2022-12-11T00:57:52;38.90;;;19.55;;
20026;SDS011;10174;42.688;23.344;2022-12-11T01:00:18;44.88;;;19.13;;
20026;SDS011;10174;42.688;23.344;2022-12-11T01:02:44;42.58;;;19.77;;
20026;SDS011;10174;42.688;23.344;2022-12-11T01:05:09;41.97;;;20.98;;
20026;SDS011;10174;42.688;23.344;2022-12-11T01:07:35;42.65;;;20.92;;
20026;SDS011;10174;42.688;23.344;2022-12-11T01:10:01;44.17;;;21.20;;
20026;SDS011;10174;42.688;23.344;2022-12-11T01:12:45;48.05;;;20.58;;
20026;SDS011;10174;42.688;23.344;2022-12-11T01:15:11;43.58;;;20.45;;
20026;SDS011;10174;42.688;23.344;2022-12-11T01:17:36;51.25;;;20.98;;
20026;SDS011;10174;42.688;23.344;2022-12-11T01:20:02;51.15;;;25.08;;
20026;SDS011;10174;42.688;23.344;2022-12-11T01:22:29;40.50;;;20.83;;
20026;SDS011;10174;42.688;23.344;2022-12-11T01:24:55;48.90;;;21.48;;
20026;SDS011;10174;42.688;23.344;2022-12-11T01:27:20;55.50;;;21.80;;
20026;SDS011;10174;42.688;23.344;2022-12-11T01:29:46;44.50;;;20.77;;
20026;SDS011;10174;42.688;23.344;2022-12-11T01:32:11;39.83;;;19.40;;
20026;SDS011;10174;42.688;23.344;2022-12-11T01:34:37;41.83;;;19.33;;
20026;SDS011;10174;42.688;23.344;2022-12-11T01:37:02;45.85;;;19.25;;
20026;SDS011;10174;42.688;23.344;2022-12-11T01:39:28;45.80;;;20.15;;
20026;SDS011;10174;42.688;23.344;2022-12-11T01:41:57;42.13;;;18.60;;
20026;SDS011;10174;42.688;23.344;2022-12-11T01:46:51;43.38;;;19.85;;
20026;SDS011;10174;42.688;23.344;2022-12-11T01:49:18;42.38;;;20.80;;
20026;SDS011;10174;42.688;23.344;2022-12-11T01:51:52;39.63;;;19.15;;
20026;SDS011;10174;42.688;23.344;2022-12-11T01:54:29;33.97;;;17.50;;
20026;SDS011;10174;42.688;23.344;2022-12-11T01:56:56;39.15;;;17.15;;
20026;SDS011;10174;42.688;23.344;2022-12-11T01:59:27;30.48;;;14.45;;
20026;SDS011;10174;42.688;23.344;2022-12-11T02:02:14;42.72;;;16.70;;
20026;SDS011;10174;42.688;23.344;2022-12-11T02:04:43;32.45;;;15.20;;
20026;SDS011;10174;42.688;23.344;2022-12-11T02:07:10;36.65;;;15.20;;
20026;SDS011;10174;42.688;23.344;2022-12-11T02:09:36;40.13;;;16.42;;
20026;SDS011;10174;42.688;23.344;2022-12-11T02:14:58;17.80;;;7.20;;
20026;SDS011;10174;42.688;23.344;2022-12-11T02:17:43;7.63;;;3.30;;
20026;SDS011;10174;42.688;23.344;2022-12-11T02:22:52;12.77;;;6.45;;
20026;SDS011;10174;42.688;23.344;2022-12-11T02:26:01;15.35;;;6.30;;
20026;SDS011;10174;42.688;23.344;2022-12-11T02:36:42;10.43;;;5.38;;
20026;SDS011;10174;42.688;23.344;2022-12-11T02:39:12;19.45;;;5.35;;
20026;SDS011;10174;42.688;23.344;2022-12-11T02:41:41;18.10;;;6.72;;
20026;SDS011;10174;42.688;23.344;2022-12-11T02:44:10;14.68;;;6.28;;
20026;SDS011;10174;42.688;23.344;2022-12-11T02:46:38;14.63;;;6.57;;
20026;SDS011;10174;42.688;23.344;2022-12-11T02:49:04;17.65;;;6.82;;
20026;SDS011;10174;42.688;23.344;2022-12-11T02:51:37;25.00;;;7.57;;
20026;SDS011;10174;42.688;23.344;2022-12-11T02:54:04;25.10;;;8.18;;
20026;SDS011;10174;42.688;23.344;2022-12-11T02:56:44;22.45;;;7.43;;
20026;SDS011;10174;42.688;23.344;2022-12-11T02:59:15;19.48;;;6.00;;
20026;SDS011;10174;42.688;23.344;2022-12-11T03:01:45;12.48;;;5.00;;
20026;SDS011;10174;42.688;23.344;2022-12-11T03:04:11;10.35;;;5.50;;
20026;SDS011;10174;42.688;23.344;2022-12-11T03:06:42;17.38;;;4.68;;
20026;SDS011;10174;42.688;23.344;2022-12-11T03:09:12;17.30;;;5.85;;
20026;SDS011;10174;42.688;23.344;2022-12-11T03:11:38;9.50;;;4.10;;
20026;SDS011;10174;42.688;23.344;2022-12-11T03:14:03;12.57;;;4.20;;
20026;SDS011;10174;42.688;23.344;2022-12-11T03:16:33;11.48;;;3.92;;
20026;SDS011;10174;42.688;23.344;2022-12-11T03:19:11;12.32;;;4.10;;
20026;SDS011;10174;42.688;23.344;2022-12-11T03:22:10;8.38;;;4.03;;
20026;SDS011;10174;42.688;23.344;2022-12-11T03:24:43;6.32;;;2.33;;
20026;SDS011;10174;42.688;23.344;2022-12-11T03:27:14;11.13;;;4.18;;
20026;SDS011;10174;42.688;23.344;2022-12-11T03:29:50;9.98;;;3.28;;
20026;SDS011;10174;42.688;23.344;2022-12-11T03:32:21;7.05;;;2.83;;
20026;SDS011;10174;42.688;23.344;2022-12-11T03:34:56;5.53;;;2.90;;
20026;SDS011;10174;42.688;23.344;2022-12-11T03:37:27;5.90;;;2.30;;
20026;SDS011;10174;42.688;23.344;2022-12-11T03:39:59;10.10;;;3.33;;
20026;SDS011;10174;42.688;23.344;2022-12-11T03:42:29;5.45;;;1.77;;
20026;SDS011;10174;42.688;23.344;2022-12-11T03:44:55;3.67;;;2.20;;
20026;SDS011;10174;42.688;23.344;2022-12-11T03:47:24;8.10;;;2.80;;
20026;SDS011;10174;42.688;23.344;2022-12-11T03:49:51;2.65;;;1.77;;
20026;SDS011;10174;42.688;23.344;2022-12-11T03:52:19;3.75;;;1.30;;
20026;SDS011;10174;42.688;23.344;2022-12-11T03:54:46;4.43;;;1.20;;
20026;SDS011;10174;42.688;23.344;2022-12-11T03:57:15;5.15;;;1.83;;
20026;SDS011;10174;42.688;23.344;2022-12-11T03:59:45;2.28;;;1.10;;
20026;SDS011;10174;42.688;23.344;2022-12-11T04:02:11;4.35;;;1.90;;
20026;SDS011;10174;42.688;23.344;2022-12-11T04:04:37;5.20;;;2.38;;
20026;SDS011;10174;42.688;23.344;2022-12-11T04:07:02;7.32;;;2.20;;
20026;SDS011;10174;42.688;23.344;2022-12-11T04:09:28;5.82;;;1.90;;
20026;SDS011;10174;42.688;23.344;2022-12-11T04:11:53;4.25;;;1.70;;
20026;SDS011;10174;42.688;23.344;2022-12-11T04:14:19;2.10;;;1.33;;
20026;SDS011;10174;42.688;23.344;2022-12-11T04:17:03;3.08;;;1.23;;
20026;SDS011;10174;42.688;23.344;2022-12-11T04:19:28;2.95;;;1.20;;
20026;SDS011;10174;42.688;23.344;2022-12-11T04:22:13;2.63;;;1.40;;
20026;SDS011;10174;42.688;23.344;2022-12-11T04:24:58;3.45;;;1.10;;
20026;SDS011;10174;42.688;23.344;2022-12-11T04:27:24;5.05;;;1.40;;
20026;SDS011;10174;42.688;23.344;2022-12-11T04:30:11;3.97;;;1.20;;
20026;SDS011;10174;42.688;23.344;2022-12-11T04:32:38;7.88;;;1.45;;
20026;SDS011;10174;42.688;23.344;2022-12-11T04:35:05;2.70;;;1.00;;
20026;SDS011;10174;42.688;23.344;2022-12-11T04:37:31;7.38;;;1.73;;
20026;SDS011;10174;42.688;23.344;2022-12-11T04:39:57;3.20;;;0.80;;
20026;SDS011;10174;42.688;23.344;2022-12-11T04:42:22;5.75;;;1.30;;
20026;SDS011;10174;42.688;23.344;2022-12-11T04:44:48;2.08;;;1.13;;
20026;SDS011;10174;42.688;23.344;2022-12-11T04:47:13;3.58;;;1.00;;
20026;SDS011;10174;42.688;23.344;2022-12-11T04:49:38;4.45;;;1.30;;
20026;SDS011;10174;42.688;23.344;2022-12-11T04:52:04;5.15;;;1.33;;
20026;SDS011;10174;42.688;23.344;2022-12-11T04:54:29;3.03;;;0.95;;
20026;SDS011;10174;42.688;23.344;2022-12-11T04:56:55;2.83;;;0.70;;
20026;SDS011;10174;42.688;23.344;2022-12-11T04:59:20;2.95;;;0.70;;
20026;SDS011;10174;42.688;23.344;2022-12-11T05:01:46;2.13;;;1.00;;
20026;SDS011;10174;42.688;23.344;2022-12-11T05:04:11;1.02;;;0.40;;
20026;SDS011;10174;42.688;23.344;2022-12-11T05:06:37;2.28;;;0.60;;
20026;SDS011;10174;42.688;23.344;2022-12-11T05:09:02;1.95;;;0.57;;
20026;SDS011;10174;42.688;23.344;2022-12-11T05:11:28;1.35;;;0.50;;
20026;SDS011;10174;42.688;23.344;2022-12-11T05:13:53;3.70;;;0.52;;
20026;SDS011;10174;42.688;23.344;2022-12-11T05:16:18;4.13;;;0.70;;
20026;SDS011;10174;42.688;23.344;2022-12-11T05:18:44;3.38;;;0.60;;
20026;SDS011;10174;42.688;23.344;2022-12-11T05:21:12;5.43;;;0.50;;
20026;SDS011;10174;42.688;23.344;2022-12-11T05:23:38;5.15;;;0.88;;
20026;SDS011;10174;42.688;23.344;2022-12-11T05:26:05;2.53;;;0.70;;
20026;SDS011;10174;42.688;23.344;2022-12-11T05:28:33;1.17;;;0.60;;
20026;SDS011;10174;42.688;23.344;2022-12-11T05:31:04;4.32;;;0.80;;
20026;SDS011;10174;42.688;23.344;2022-12-11T05:33:33;5.05;;;1.02;;
20026;SDS011;10174;42.688;23.344;2022-12-11T05:35:59;1.10;;;0.52;;
20026;SDS011;10174;42.688;23.344;2022-12-11T05:38:24;1.27;;;0.52;;
20026;SDS011;10174;42.688;23.344;2022-12-11T05:40:57;8.15;;;1.00;;
20026;SDS011;10174;42.688;23.344;2022-12-11T05:43:24;2.53;;;0.80;;
20026;SDS011;10174;42.688;23.344;2022-12-11T05:45:51;5.00;;;0.98;;
20026;SDS011;10174;42.688;23.344;2022-12-11T05:48:16;1.17;;;0.60;;
20026;SDS011;10174;42.688;23.344;2022-12-11T05:50:42;2.15;;;0.63;;
20026;SDS011;10174;42.688;23.344;2022-12-11T05:53:07;3.42;;;0.88;;
20026;SDS011;10174;42.688;23.344;2022-12-11T05:55:35;4.80;;;1.10;;
20026;SDS011;10174;42.688;23.344;2022-12-11T05:58:01;3.80;;;1.40;;
20026;SDS011;10174;42.688;23.344;2022-12-11T06:00:26;3.55;;;0.80;;
20026;SDS011;10174;42.688;23.344;2022-12-11T06:02:52;5.45;;;1.35;;
20026;SDS011;10174;42.688;23.344;2022-12-11T06:05:17;1.50;;;0.70;;
20026;SDS011;10174;42.688;23.344;2022-12-11T06:07:43;3.47;;;1.20;;
20026;SDS011;10174;42.688;23.344;2022-12-11T06:10:08;4.53;;;1.30;;
20026;SDS011;10174;42.688;23.344;2022-12-11T06:12:34;4.20;;;1.25;;
20026;SDS011;10174;42.688;23.344;2022-12-11T06:15:00;3.88;;;0.75;;
20026;SDS011;10174;42.688;23.344;2022-12-11T06:17:25;6.78;;;2.38;;
20026;SDS011;10174;42.688;23.344;2022-12-11T06:19:51;3.28;;;1.42;;
20026;SDS011;10174;42.688;23.344;2022-12-11T06:22:16;1.02;;;0.65;;
20026;SDS011;10174;42.688;23.344;2022-12-11T06:24:41;3.28;;;0.60;;
20026;SDS011;10174;42.688;23.344;2022-12-11T06:27:07;2.70;;;0.80;;
20026;SDS011;10174;42.688;23.344;2022-12-11T06:29:33;3.53;;;1.33;;
20026;SDS011;10174;42.688;23.344;2022-12-11T06:31:58;5.85;;;1.83;;
20026;SDS011;10174;42.688;23.344;2022-12-11T06:34:23;2.22;;;1.00;;
20026;SDS011;10174;42.688;23.344;2022-12-11T06:36:49;7.82;;;1.25;;
20026;SDS011;10174;42.688;23.344;2022-12-11T06:39:14;11.43;;;2.00;;
20026;SDS011;10174;42.688;23.344;2022-12-11T06:41:39;9.40;;;2.35;;
20026;SDS011;10174;42.688;23.344;2022-12-11T06:44:05;6.00;;;1.40;;
20026;SDS011;10174;42.688;23.344;2022-12-11T06:46:30;5.13;;;1.17;;
20026;SDS011;10174;42.688;23.344;2022-12-11T06:48:55;3.13;;;0.90;;
20026;SDS011;10174;42.688;23.344;2022-12-11T06:51:21;1.30;;;0.68;;
20026;SDS011;10174;42.688;23.344;2022-12-11T06:53:51;3.97;;;0.70;;
20026;SDS011;10174;42.688;23.344;2022-12-11T06:56:17;2.10;;;0.50;;
20026;SDS011;10174;42.688;23.344;2022-12-11T06:58:43;1.35;;;0.40;;
20026;SDS011;10174;42.688;23.344;2022-12-11T07:01:13;1.80;;;0.63;;
20026;SDS011;10174;42.688;23.344;2022-12-11T07:03:38;1.42;;;0.45;;
20026;SDS011;10174;42.688;23.344;2022-12-11T07:06:04;3.10;;;0.40;;
20026;SDS011;10174;42.688;23.344;2022-12-11T07:08:29;0.47;;;0.47;;
20026;SDS011;10174;42.688;23.344;2022-12-11T07:11:01;1.83;;;0.93;;
20026;SDS011;10174;42.688;23.344;2022-12-11T07:13:27;1.38;;;0.70;;
20026;SDS011;10174;42.688;23.344;2022-12-11T07:15:53;2.67;;;0.80;;
20026;SDS011;10174;42.688;23.344;2022-12-11T07:18:18;3.22;;;1.15;;
20026;SDS011;10174;42.688;23.344;2022-12-11T07:20:43;1.65;;;1.00;;
20026;SDS011;10174;42.688;23.344;2022-12-11T07:23:09;6.10;;;0.80;;
20026;SDS011;10174;42.688;23.344;2022-12-11T07:25:35;5.68;;;1.05;;
20026;SDS011;10174;42.688;23.344;2022-12-11T07:28:01;1.50;;;0.70;;
20026;SDS011;10174;42.688;23.344;2022-12-11T07:30:26;4.75;;;1.10;;
20026;SDS011;10174;42.688;23.344;2022-12-11T07:32:53;4.22;;;1.65;;
20026;SDS011;10174;42.688;23.344;2022-12-11T07:35:18;2.17;;;0.80;;
20026;SDS011;10174;42.688;23.344;2022-12-11T07:37:43;5.50;;;0.75;;
20026;SDS011;10174;42.688;23.344;2022-12-11T07:40:10;8.68;;;1.23;;
20026;SDS011;10174;42.688;23.344;2022-12-11T07:42:35;10.73;;;1.30;;
20026;SDS011;10174;42.688;23.344;2022-12-11T07:45:01;2.97;;;0.80;;
20026;SDS011;10174;42.688;23.344;2022-12-11T07:47:26;2.38;;;0.80;;
20026;SDS011;10174;42.688;23.344;2022-12-11T07:49:52;3.13;;;1.00;;
20026;SDS011;10174;42.688;23.344;2022-12-11T07:52:17;5.40;;;1.05;;
20026;SDS011;10174;42.688;23.344;2022-12-11T07:54:42;4.40;;;1.30;;
20026;SDS011;10174;42.688;23.344;2022-12-11T07:57:08;7.80;;;1.42;;
20026;SDS011;10174;42.688;23.344;2022-12-11T07:59:33;5.85;;;1.50;;
20026;SDS011;10174;42.688;23.344;2022-12-11T08:01:58;3.15;;;1.30;;
20026;SDS011;10174;42.688;23.344;2022-12-11T08:04:24;1.88;;;0.70;;
20026;SDS011;10174;42.688;23.344;2022-12-11T08:06:49;2.75;;;0.85;;
20026;SDS011;10174;42.688;23.344;2022-12-11T08:09:15;2.25;;;0.90;;
20026;SDS011;10174;42.688;23.344;2022-12-11T08:11:40;3.70;;;0.90;;
20026;SDS011;10174;42.688;23.344;2022-12-11T08:14:05;2.92;;;0.75;;
20026;SDS011;10174;42.688;23.344;2022-12-11T08:16:32;0.93;;;0.63;;
20026;SDS011;10174;42.688;23.344;2022-12-11T08:18:58;2.90;;;1.00;;
20026;SDS011;10174;42.688;23.344;2022-12-11T08:21:24;1.73;;;0.90;;
20026;SDS011;10174;42.688;23.344;2022-12-11T08:23:51;2.47;;;0.93;;
20026;SDS011;10174;42.688;23.344;2022-12-11T08:26:27;5.95;;;1.25;;
20026;SDS011;10174;42.688;23.344;2022-12-11T08:28:54;1.65;;;0.93;;
20026;SDS011;10174;42.688;23.344;2022-12-11T08:31:20;5.15;;;1.23;;
20026;SDS011;10174;42.688;23.344;2022-12-11T08:33:46;4.32;;;0.95;;
20026;SDS011;10174;42.688;23.344;2022-12-11T08:36:14;6.70;;;1.48;;
20026;SDS011;10174;42.688;23.344;2022-12-11T08:38:41;3.40;;;1.20;;
20026;SDS011;10174;42.688;23.344;2022-12-11T08:41:13;2.15;;;1.40;;
20026;SDS011;10174;42.688;23.344;2022-12-11T08:43:43;5.47;;;1.50;;
20026;SDS011;10174;42.688;23.344;2022-12-11T08:46:09;6.35;;;1.60;;
20026;SDS011;10174;42.688;23.344;2022-12-11T08:48:36;3.22;;;1.30;;
20026;SDS011;10174;42.688;23.344;2022-12-11T08:51:03;1.40;;;0.90;;
20026;SDS011;10174;42.688;23.344;2022-12-11T08:53:30;3.63;;;1.65;;
20026;SDS011;10174;42.688;23.344;2022-12-11T08:56:03;2.33;;;1.13;;
20026;SDS011;10174;42.688;23.344;2022-12-11T08:58:31;3.35;;;1.13;;
20026;SDS011;10174;42.688;23.344;2022-12-11T09:00:56;3.42;;;1.27;;
20026;SDS011;10174;42.688;23.344;2022-12-11T09:03:22;4.95;;;1.38;;
20026;SDS011;10174;42.688;23.344;2022-12-11T09:05:48;6.70;;;1.90;;
20026;SDS011;10174;42.688;23.344;2022-12-11T09:08:13;5.05;;;2.50;;
20026;SDS011;10174;42.688;23.344;2022-12-11T09:10:39;6.53;;;1.98;;
20026;SDS011;10174;42.688;23.344;2022-12-11T09:13:04;7.53;;;2.13;;
20026;SDS011;10174;42.688;23.344;2022-12-11T09:15:29;5.38;;;2.65;;
20026;SDS011;10174;42.688;23.344;2022-12-11T09:17:55;5.22;;;2.00;;
20026;SDS011;10174;42.688;23.344;2022-12-11T09:20:20;3.22;;;2.10;;
20026;SDS011;10174;42.688;23.344;2022-12-11T09:22:45;4.35;;;2.13;;
20026;SDS011;10174;42.688;23.344;2022-12-11T09:25:11;4.20;;;2.15;;
20026;SDS011;10174;42.688;23.344;2022-12-11T09:27:36;4.50;;;2.10;;
20026;SDS011;10174;42.688;23.344;2022-12-11T09:30:02;5.13;;;2.60;;
20026;SDS011;10174;42.688;23.344;2022-12-11T09:32:28;9.38;;;2.35;;
20026;SDS011;10174;42.688;23.344;2022-12-11T09:34:54;3.60;;;1.67;;
20026;SDS011;10174;42.688;23.344;2022-12-11T09:37:19;3.53;;;1.75;;
20026;SDS011;10174;42.688;23.344;2022-12-11T09:39:45;4.57;;;1.50;;
20026;SDS011;10174;42.688;23.344;2022-12-11T09:45:13;6.53;;;1.65;;
20026;SDS011;10174;42.688;23.344;2022-12-11T09:47:41;5.97;;;1.20;;
20026;SDS011;10174;42.688;23.344;2022-12-11T09:55:22;3.30;;;1.77;;
20026;SDS011;10174;42.688;23.344;2022-12-11T09:58:24;2.65;;;0.90;;
20026;SDS011;10174;42.688;23.344;2022-12-11T10:01:01;5.68;;;1.05;;
20026;SDS011;10174;42.688;23.344;2022-12-11T10:12:10;3.15;;;1.35;;
20026;SDS011;10174;42.688;23.344;2022-12-11T10:17:38;2.97;;;1.15;;
20026;SDS011;10174;42.688;23.344;2022-12-11T10:22:33;4.60;;;1.50;;
20026;SDS011;10174;42.688;23.344;2022-12-11T10:25:00;2.60;;;1.30;;
20026;SDS011;10174;42.688;23.344;2022-12-11T10:27:29;1.77;;;1.30;;
20026;SDS011;10174;42.688;23.344;2022-12-11T10:30:13;1.58;;;1.17;;
20026;SDS011;10174;42.688;23.344;2022-12-11T10:35:52;2.08;;;1.60;;
20026;SDS011;10174;42.688;23.344;2022-12-11T10:38:23;2.50;;;1.45;;
20026;SDS011;10174;42.688;23.344;2022-12-11T10:40:53;3.03;;;1.48;;
20026;SDS011;10174;42.688;23.344;2022-12-11T10:43:31;4.63;;;1.60;;
20026;SDS011;10174;42.688;23.344;2022-12-11T10:46:00;5.97;;;1.88;;
20026;SDS011;10174;42.688;23.344;2022-12-11T10:48:25;8.00;;;2.42;;
20026;SDS011;10174;42.688;23.344;2022-12-11T10:50:55;8.57;;;2.95;;
20026;SDS011;10174;42.688;23.344;2022-12-11T10:53:23;6.90;;;2.03;;
20026;SDS011;10174;42.688;23.344;2022-12-11T10:55:49;5.43;;;1.70;;
20026;SDS011;10174;42.688;23.344;2022-12-11T10:58:17;6.53;;;2.00;;
20026;SDS011;10174;42.688;23.344;2022-12-11T11:01:01;3.42;;;1.48;;
20026;SDS011;10174;42.688;23.344;2022-12-11T11:03:29;5.18;;;1.50;;
20026;SDS011;10174;42.688;23.344;2022-12-11T11:06:15;1.80;;;0.88;;
20026;SDS011;10174;42.688;23.344;2022-12-11T11:08:44;2.45;;;1.00;;
20026;SDS011;10174;42.688;23.344;2022-12-11T11:13:49;2.95;;;1.25;;
20026;SDS011;10174;42.688;23.344;2022-12-11T11:16:16;2.97;;;1.45;;
20026;SDS011;10174;42.688;23.344;2022-12-11T11:18:51;2.15;;;1.00;;
20026;SDS011;10174;42.688;23.344;2022-12-11T11:21:19;1.30;;;1.00;;
20026;SDS011;10174;42.688;23.344;2022-12-11T11:23:50;1.58;;;1.20;;
20026;SDS011;10174;42.688;23.344;2022-12-11T11:26:17;3.28;;;1.30;;
20026;SDS011;10174;42.688;23.344;2022-12-11T11:28:56;3.03;;;1.08;;
20026;SDS011;10174;42.688;23.344;2022-12-11T11:31:30;2.40;;;1.00;;
20026;SDS011;10174;42.688;23.344;2022-12-11T11:34:02;12.73;;;4.10;;
20026;SDS011;10174;42.688;23.344;2022-12-11T11:36:33;5.20;;;1.88;;
20026;SDS011;10174;42.688;23.344;2022-12-11T11:39:05;5.97;;;2.30;;
20026;SDS011;10174;42.688;23.344;2022-12-11T11:44:14;4.68;;;2.20;;
20026;SDS011;10174;42.688;23.344;2022-12-11T11:46:52;15.85;;;2.72;;
20026;SDS011;10174;42.688;23.344;2022-12-11T11:49:25;22.77;;;8.13;;
20026;SDS011;10174;42.688;23.344;2022-12-11T11:52:14;3.63;;;1.48;;
20026;SDS011;10174;42.688;23.344;2022-12-11T11:55:17;3.92;;;2.00;;
20026;SDS011;10174;42.688;23.344;2022-12-11T11:57:56;35.72;;;12.65;;
20026;SDS011;10174;42.688;23.344;2022-12-11T12:00:25;21.83;;;7.82;;
20026;SDS011;10174;42.688;23.344;2022-12-11T12:02:56;10.55;;;5.30;;
20026;SDS011;10174;42.688;23.344;2022-12-11T12:05:29;15.30;;;7.20;;
20026;SDS011;10174;42.688;23.344;2022-12-11T12:11:05;21.67;;;6.55;;
20026;SDS011;10174;42.688;23.344;2022-12-11T12:16:39;10.98;;;5.90;;
20026;SDS011;10174;42.688;23.344;2022-12-11T12:21:39;10.32;;;3.40;;
20026;SDS011;10174;42.688;23.344;2022-12-11T12:26:59;5.88;;;3.10;;
20026;SDS011;10174;42.688;23.344;2022-12-11T12:42:56;5.90;;;2.55;;
20026;SDS011;10174;42.688;23.344;2022-12-11T12:48:30;5.47;;;3.13;;
20026;SDS011;10174;42.688;23.344;2022-12-11T12:50:56;5.88;;;2.92;;
20026;SDS011;10174;42.688;23.344;2022-12-11T12:53:23;8.05;;;3.35;;
20026;SDS011;10174;42.688;23.344;2022-12-11T12:55:52;8.32;;;2.95;;
20026;SDS011;10174;42.688;23.344;2022-12-11T13:01:09;5.25;;;2.97;;
20026;SDS011;10174;42.688;23.344;2022-12-11T13:09:08;7.22;;;3.60;;
20026;SDS011;10174;42.688;23.344;2022-12-11T13:11:40;6.82;;;3.50;;
20026;SDS011;10174;42.688;23.344;2022-12-11T13:16:41;6.00;;;2.88;;
20026;SDS011;10174;42.688;23.344;2022-12-11T13:24:31;3.95;;;2.38;;
20026;SDS011;10174;42.688;23.344;2022-12-11T13:27:42;6.30;;;2.80;;
20026;SDS011;10174;42.688;23.344;2022-12-11T13:29:49;5.53;;;2.78;;
20026;SDS011;10174;42.688;23.344;2022-12-11T13:34:42;5.78;;;2.90;;
20026;SDS011;10174;42.688;23.344;2022-12-11T13:37:37;6.93;;;2.85;;
20026;SDS011;10174;42.688;23.344;2022-12-11T13:42:51;5.03;;;2.50;;
20026;SDS011;10174;42.688;23.344;2022-12-11T13:45:25;5.15;;;2.78;;
20026;SDS011;10174;42.688;23.344;2022-12-11T13:48:01;8.55;;;3.00;;
20026;SDS011;10174;42.688;23.344;2022-12-11T13:50:32;5.18;;;2.45;;
20026;SDS011;10174;42.688;23.344;2022-12-11T13:52:59;6.00;;;2.38;;
20026;SDS011;10174;42.688;23.344;2022-12-11T13:55:27;6.32;;;2.60;;
20026;SDS011;10174;42.688;23.344;2022-12-11T13:57:59;4.75;;;2.20;;
20026;SDS011;10174;42.688;23.344;2022-12-11T14:00:26;4.35;;;2.00;;
20026;SDS011;10174;42.688;23.344;2022-12-11T14:02:55;3.72;;;2.15;;
20026;SDS011;10174;42.688;23.344;2022-12-11T14:05:23;4.45;;;2.00;;
20026;SDS011;10174;42.688;23.344;2022-12-11T14:07:58;3.53;;;1.88;;
20026;SDS011;10174;42.688;23.344;2022-12-11T14:10:29;7.20;;;2.17;;
20026;SDS011;10174;42.688;23.344;2022-12-11T14:13:00;4.95;;;2.60;;
20026;SDS011;10174;42.688;23.344;2022-12-11T14:15:29;6.75;;;2.08;;
20026;SDS011;10174;42.688;23.344;2022-12-11T14:17:56;4.03;;;1.92;;
20026;SDS011;10174;42.688;23.344;2022-12-11T14:20:27;5.65;;;2.47;;
20026;SDS011;10174;42.688;23.344;2022-12-11T14:23:07;3.95;;;2.53;;
20026;SDS011;10174;42.688;23.344;2022-12-11T14:25:41;4.38;;;2.42;;
20026;SDS011;10174;42.688;23.344;2022-12-11T14:28:15;5.97;;;3.40;;
20026;SDS011;10174;42.688;23.344;2022-12-11T14:30:46;9.27;;;3.85;;
20026;SDS011;10174;42.688;23.344;2022-12-11T14:33:13;6.38;;;3.28;;
20026;SDS011;10174;42.688;23.344;2022-12-11T14:35:41;6.10;;;3.20;;
20026;SDS011;10174;42.688;23.344;2022-12-11T14:41:12;4.72;;;2.83;;
20026;SDS011;10174;42.688;23.344;2022-12-11T14:43:48;8.68;;;3.67;;
20026;SDS011;10174;42.688;23.344;2022-12-11T14:46:20;9.43;;;3.15;;
20026;SDS011;10174;42.688;23.344;2022-12-11T14:48:58;5.97;;;3.33;;
20026;SDS011;10174;42.688;23.344;2022-12-11T14:51:32;4.63;;;2.28;;
20026;SDS011;10174;42.688;23.344;2022-12-11T14:54:03;4.63;;;2.45;;
20026;SDS011;10174;42.688;23.344;2022-12-11T14:56:30;6.22;;;2.83;;
20026;SDS011;10174;42.688;23.344;2022-12-11T14:59:00;8.65;;;3.38;;
20026;SDS011;10174;42.688;23.344;2022-12-11T15:01:29;5.95;;;3.33;;
20026;SDS011;10174;42.688;23.344;2022-12-11T15:06:46;7.10;;;3.58;;
20026;SDS011;10174;42.688;23.344;2022-12-11T15:09:20;7.30;;;3.33;;
20026;SDS011;10174;42.688;23.344;2022-12-11T15:11:50;7.60;;;3.90;;
20026;SDS011;10174;42.688;23.344;2022-12-11T15:14:17;9.23;;;4.15;;
20026;SDS011;10174;42.688;23.344;2022-12-11T15:16:45;7.60;;;4.30;;
20026;SDS011;10174;42.688;23.344;2022-12-11T15:19:19;8.52;;;4.10;;
20026;SDS011;10174;42.688;23.344;2022-12-11T15:21:52;7.20;;;3.65;;
20026;SDS011;10174;42.688;23.344;2022-12-11T15:24:23;7.18;;;4.00;;
20026;SDS011;10174;42.688;23.344;2022-12-11T15:26:55;8.95;;;4.00;;
20026;SDS011;10174;42.688;23.344;2022-12-11T15:29:33;8.75;;;4.25;;
20026;SDS011;10174;42.688;23.344;2022-12-11T15:37:51;10.65;;;5.00;;
20026;SDS011;10174;42.688;23.344;2022-12-11T15:40:17;11.00;;;4.90;;
20026;SDS011;10174;42.688;23.344;2022-12-11T15:42:43;12.32;;;4.70;;
20026;SDS011;10174;42.688;23.344;2022-12-11T15:45:14;9.25;;;4.80;;
20026;SDS011;10174;42.688;23.344;2022-12-11T15:47:52;7.95;;;4.40;;
20026;SDS011;10174;42.688;23.344;2022-12-11T15:50:22;9.30;;;4.50;;
20026;SDS011;10174;42.688;23.344;2022-12-11T15:52:50;8.85;;;4.25;;
20026;SDS011;10174;42.688;23.344;2022-12-11T15:55:17;8.85;;;3.80;;
20026;SDS011;10174;42.688;23.344;2022-12-11T15:57:44;6.78;;;4.18;;
20026;SDS011;10174;42.688;23.344;2022-12-11T16:00:21;5.65;;;3.15;;
20026;SDS011;10174;42.688;23.344;2022-12-11T16:02:48;6.82;;;4.13;;
20026;SDS011;10174;42.688;23.344;2022-12-11T16:05:14;7.72;;;3.90;;
20026;SDS011;10174;42.688;23.344;2022-12-11T16:07:39;7.35;;;4.20;;
20026;SDS011;10174;42.688;23.344;2022-12-11T16:10:05;9.27;;;4.40;;
20026;SDS011;10174;42.688;23.344;2022-12-11T16:12:31;9.35;;;4.68;;
20026;SDS011;10174;42.688;23.344;2022-12-11T16:14:57;9.93;;;4.97;;
20026;SDS011;10174;42.688;23.344;2022-12-11T16:17:23;11.05;;;5.30;;
20026;SDS011;10174;42.688;23.344;2022-12-11T16:19:48;11.82;;;5.50;;
20026;SDS011;10174;42.688;23.344;2022-12-11T16:22:13;8.60;;;5.15;;
20026;SDS011;10174;42.688;23.344;2022-12-11T16:24:40;9.68;;;4.90;;
20026;SDS011;10174;42.688;23.344;2022-12-11T16:27:05;10.15;;;5.80;;